sensor_id;sensor_type;location;lat;lon;timestamp;temperature;humidity
11423;DHT22;5768;51.476;7.210;2022-08-19T00:04:41;21.10;18.30
11423;DHT22;5768;51.476;7.210;2022-08-19T00:09:43;21.00;18.40
11423;DHT22;5768;51.476;7.210;2022-08-19T00:14:46;21.00;18.40
11423;DHT22;5768;51.476;7.210;2022-08-19T00:19:48;21.00;18.50
11423;DHT22;5768;51.476;7.210;2022-08-19T00:24:50;21.00;18.50
11423;DHT22;5768;51.476;7.210;2022-08-19T00:29:54;20.90;18.70
11423;DHT22;5768;51.476;7.210;2022-08-19T00:34:56;20.80;18.90
11423;DHT22;5768;51.476;7.210;2022-08-19T00:39:59;20.80;18.90
11423;DHT22;5768;51.476;7.210;2022-08-19T00:45:10;20.70;19.10
11423;DHT22;5768;51.476;7.210;2022-08-19T00:50:18;20.70;19.10
11423;DHT22;5768;51.476;7.210;2022-08-19T00:55:25;20.70;19.10
11423;DHT22;5768;51.476;7.210;2022-08-19T01:00:31;20.70;19.20
11423;DHT22;5768;51.476;7.210;2022-08-19T01:05:36;20.60;19.20
11423;DHT22;5768;51.476;7.210;2022-08-19T01:10:41;20.60;19.20
11423;DHT22;5768;51.476;7.210;2022-08-19T01:15:51;20.60;19.20
11423;DHT22;5768;51.476;7.210;2022-08-19T01:20:59;20.60;19.30
11423;DHT22;5768;51.476;7.210;2022-08-19T01:26:09;20.50;19.50
11423;DHT22;5768;51.476;7.210;2022-08-19T01:31:14;20.40;19.50
11423;DHT22;5768;51.476;7.210;2022-08-19T01:36:23;20.40;19.70
11423;DHT22;5768;51.476;7.210;2022-08-19T01:41:29;20.30;19.80
11423;DHT22;5768;51.476;7.210;2022-08-19T01:46:32;20.30;19.80
11423;DHT22;5768;51.476;7.210;2022-08-19T01:51:34;20.40;19.80
11423;DHT22;5768;51.476;7.210;2022-08-19T01:56:38;20.20;19.90
11423;DHT22;5768;51.476;7.210;2022-08-19T02:01:41;20.30;20.00
11423;DHT22;5768;51.476;7.210;2022-08-19T02:06:43;20.20;20.00
11423;DHT22;5768;51.476;7.210;2022-08-19T02:11:47;20.20;20.00
11423;DHT22;5768;51.476;7.210;2022-08-19T02:16:55;20.10;20.10
11423;DHT22;5768;51.476;7.210;2022-08-19T02:21:57;20.10;20.00
11423;DHT22;5768;51.476;7.210;2022-08-19T02:27:01;20.10;20.00
11423;DHT22;5768;51.476;7.210;2022-08-19T02:32:03;20.10;20.10
11423;DHT22;5768;51.476;7.210;2022-08-19T02:37:06;20.10;20.10
11423;DHT22;5768;51.476;7.210;2022-08-19T02:42:30;20.00;20.30
11423;DHT22;5768;51.476;7.210;2022-08-19T02:47:34;19.90;20.40
11423;DHT22;5768;51.476;7.210;2022-08-19T02:52:36;20.00;20.40
11423;DHT22;5768;51.476;7.210;2022-08-19T02:57:40;19.90;20.40
11423;DHT22;5768;51.476;7.210;2022-08-19T03:02:42;20.00;20.50
11423;DHT22;5768;51.476;7.210;2022-08-19T03:07:44;19.90;20.70
11423;DHT22;5768;51.476;7.210;2022-08-19T03:12:48;19.80;20.80
11423;DHT22;5768;51.476;7.210;2022-08-19T03:17:50;19.80;20.50
11423;DHT22;5768;51.476;7.210;2022-08-19T03:22:52;19.80;20.70
11423;DHT22;5768;51.476;7.210;2022-08-19T03:27:56;19.70;20.70
11423;DHT22;5768;51.476;7.210;2022-08-19T03:32:58;19.70;20.60
11423;DHT22;5768;51.476;7.210;2022-08-19T03:38:00;19.70;20.70
11423;DHT22;5768;51.476;7.210;2022-08-19T03:43:04;19.70;21.00
11423;DHT22;5768;51.476;7.210;2022-08-19T03:48:06;19.60;20.90
11423;DHT22;5768;51.476;7.210;2022-08-19T03:53:09;19.50;21.10
11423;DHT22;5768;51.476;7.210;2022-08-19T03:58:12;19.50;21.40
11423;DHT22;5768;51.476;7.210;2022-08-19T04:03:14;19.50;21.40
11423;DHT22;5768;51.476;7.210;2022-08-19T04:08:19;19.50;21.40
11423;DHT22;5768;51.476;7.210;2022-08-19T04:13:24;19.50;21.50
11423;DHT22;5768;51.476;7.210;2022-08-19T04:18:26;19.50;21.40
11423;DHT22;5768;51.476;7.210;2022-08-19T04:23:30;19.50;21.40
11423;DHT22;5768;51.476;7.210;2022-08-19T04:28:34;19.50;21.40
11423;DHT22;5768;51.476;7.210;2022-08-19T04:33:37;19.60;21.30
11423;DHT22;5768;51.476;7.210;2022-08-19T04:38:39;19.70;20.90
11423;DHT22;5768;51.476;7.210;2022-08-19T04:43:44;19.70;21.10
11423;DHT22;5768;51.476;7.210;2022-08-19T04:48:49;19.70;21.00
11423;DHT22;5768;51.476;7.210;2022-08-19T04:53:53;19.80;20.80
11423;DHT22;5768;51.476;7.210;2022-08-19T04:58:57;20.00;20.70
11423;DHT22;5768;51.476;7.210;2022-08-19T05:04:05;20.10;20.50
11423;DHT22;5768;51.476;7.210;2022-08-19T05:09:08;20.20;20.10
11423;DHT22;5768;51.476;7.210;2022-08-19T05:14:12;20.30;20.00
11423;DHT22;5768;51.476;7.210;2022-08-19T05:19:14;20.40;20.00
11423;DHT22;5768;51.476;7.210;2022-08-19T05:24:35;20.50;19.90
11423;DHT22;5768;51.476;7.210;2022-08-19T05:29:39;20.50;19.70
11423;DHT22;5768;51.476;7.210;2022-08-19T05:34:41;20.50;19.70
11423;DHT22;5768;51.476;7.210;2022-08-19T05:39:53;20.50;19.70
11423;DHT22;5768;51.476;7.210;2022-08-19T05:44:58;20.70;19.60
11423;DHT22;5768;51.476;7.210;2022-08-19T05:50:01;20.80;19.40
11423;DHT22;5768;51.476;7.210;2022-08-19T05:55:10;20.90;19.30
11423;DHT22;5768;51.476;7.210;2022-08-19T06:00:15;20.90;19.40
11423;DHT22;5768;51.476;7.210;2022-08-19T06:05:21;20.90;19.50
11423;DHT22;5768;51.476;7.210;2022-08-19T06:10:24;20.90;19.30
11423;DHT22;5768;51.476;7.210;2022-08-19T06:15:28;20.80;19.60
11423;DHT22;5768;51.476;7.210;2022-08-19T06:20:31;20.90;19.60
11423;DHT22;5768;51.476;7.210;2022-08-19T06:25:35;20.90;19.80
11423;DHT22;5768;51.476;7.210;2022-08-19T06:30:39;20.90;19.70
11423;DHT22;5768;51.476;7.210;2022-08-19T06:35:42;21.20;19.50
11423;DHT22;5768;51.476;7.210;2022-08-19T06:40:44;21.20;19.50
11423;DHT22;5768;51.476;7.210;2022-08-19T06:45:48;21.10;19.70
11423;DHT22;5768;51.476;7.210;2022-08-19T06:50:52;21.30;19.50
11423;DHT22;5768;51.476;7.210;2022-08-19T06:55:55;21.30;19.40
11423;DHT22;5768;51.476;7.210;2022-08-19T07:01:03;21.40;19.40
11423;DHT22;5768;51.476;7.210;2022-08-19T07:06:08;21.60;19.20
11423;DHT22;5768;51.476;7.210;2022-08-19T07:11:16;21.60;19.20
11423;DHT22;5768;51.476;7.210;2022-08-19T07:16:21;21.50;19.30
11423;DHT22;5768;51.476;7.210;2022-08-19T07:21:26;21.60;19.30
11423;DHT22;5768;51.476;7.210;2022-08-19T07:26:32;21.80;19.10
11423;DHT22;5768;51.476;7.210;2022-08-19T07:31:40;21.90;19.00
11423;DHT22;5768;51.476;7.210;2022-08-19T07:36:43;21.90;18.90
11423;DHT22;5768;51.476;7.210;2022-08-19T07:41:47;22.20;18.70
11423;DHT22;5768;51.476;7.210;2022-08-19T07:46:54;22.30;18.40
11423;DHT22;5768;51.476;7.210;2022-08-19T07:52:00;22.30;18.40
11423;DHT22;5768;51.476;7.210;2022-08-19T07:57:05;22.50;18.30
11423;DHT22;5768;51.476;7.210;2022-08-19T08:02:10;22.70;18.10
11423;DHT22;5768;51.476;7.210;2022-08-19T08:07:14;22.60;18.10
11423;DHT22;5768;51.476;7.210;2022-08-19T08:12:37;22.90;17.90
11423;DHT22;5768;51.476;7.210;2022-08-19T08:17:44;23.10;17.40
11423;DHT22;5768;51.476;7.210;2022-08-19T08:22:52;23.40;17.20
11423;DHT22;5768;51.476;7.210;2022-08-19T08:28:13;23.30;17.40
11423;DHT22;5768;51.476;7.210;2022-08-19T08:33:21;23.60;16.90
11423;DHT22;5768;51.476;7.210;2022-08-19T08:38:25;24.10;16.30
11423;DHT22;5768;51.476;7.210;2022-08-19T08:43:32;24.20;16.30
11423;DHT22;5768;51.476;7.210;2022-08-19T08:48:41;24.10;16.40
11423;DHT22;5768;51.476;7.210;2022-08-19T08:53:50;24.10;16.40
11423;DHT22;5768;51.476;7.210;2022-08-19T08:58:58;24.20;16.10
11423;DHT22;5768;51.476;7.210;2022-08-19T09:04:05;24.50;15.90
11423;DHT22;5768;51.476;7.210;2022-08-19T09:09:14;24.60;15.70
11423;DHT22;5768;51.476;7.210;2022-08-19T09:14:32;24.90;15.60
11423;DHT22;5768;51.476;7.210;2022-08-19T09:19:49;25.30;15.00
11423;DHT22;5768;51.476;7.210;2022-08-19T09:24:54;25.30;15.20
11423;DHT22;5768;51.476;7.210;2022-08-19T09:29:57;25.30;14.80
11423;DHT22;5768;51.476;7.210;2022-08-19T09:35:02;25.40;14.80
11423;DHT22;5768;51.476;7.210;2022-08-19T09:40:05;26.00;14.50
11423;DHT22;5768;51.476;7.210;2022-08-19T09:45:10;25.60;14.20
11423;DHT22;5768;51.476;7.210;2022-08-19T09:50:14;25.10;14.50
11423;DHT22;5768;51.476;7.210;2022-08-19T09:55:16;25.30;14.50
11423;DHT22;5768;51.476;7.210;2022-08-19T10:00:19;25.50;14.40
11423;DHT22;5768;51.476;7.210;2022-08-19T10:05:23;25.30;14.40
11423;DHT22;5768;51.476;7.210;2022-08-19T10:10:43;25.40;14.30
11423;DHT22;5768;51.476;7.210;2022-08-19T10:15:47;26.10;14.00
11423;DHT22;5768;51.476;7.210;2022-08-19T10:21:04;26.20;13.80
11423;DHT22;5768;51.476;7.210;2022-08-19T10:26:13;26.60;13.30
11423;DHT22;5768;51.476;7.210;2022-08-19T10:31:19;26.30;13.10
11423;DHT22;5768;51.476;7.210;2022-08-19T10:36:27;25.90;13.20
11423;DHT22;5768;51.476;7.210;2022-08-19T10:41:34;25.80;13.10
11423;DHT22;5768;51.476;7.210;2022-08-19T10:46:39;26.30;13.00
11423;DHT22;5768;51.476;7.210;2022-08-19T10:51:44;26.60;13.00
11423;DHT22;5768;51.476;7.210;2022-08-19T10:57:05;27.80;12.50
11423;DHT22;5768;51.476;7.210;2022-08-19T11:02:09;27.10;12.70
11423;DHT22;5768;51.476;7.210;2022-08-19T11:07:14;26.10;13.10
11423;DHT22;5768;51.476;7.210;2022-08-19T11:12:16;26.50;12.90
11423;DHT22;5768;51.476;7.210;2022-08-19T11:17:19;26.20;12.90
11423;DHT22;5768;51.476;7.210;2022-08-19T11:22:25;26.30;12.90
11423;DHT22;5768;51.476;7.210;2022-08-19T11:27:28;26.40;13.00
11423;DHT22;5768;51.476;7.210;2022-08-19T11:32:31;25.90;13.10
11423;DHT22;5768;51.476;7.210;2022-08-19T11:37:35;26.30;13.00
11423;DHT22;5768;51.476;7.210;2022-08-19T11:42:39;26.60;12.70
11423;DHT22;5768;51.476;7.210;2022-08-19T11:47:57;26.90;12.30
11423;DHT22;5768;51.476;7.210;2022-08-19T11:53:00;26.70;12.60
11423;DHT22;5768;51.476;7.210;2022-08-19T11:58:03;26.40;12.60
11423;DHT22;5768;51.476;7.210;2022-08-19T12:03:07;27.30;12.30
11423;DHT22;5768;51.476;7.210;2022-08-19T12:08:11;27.60;12.00
11423;DHT22;5768;51.476;7.210;2022-08-19T12:13:15;27.10;12.00
11423;DHT22;5768;51.476;7.210;2022-08-19T12:18:19;28.00;11.70
11423;DHT22;5768;51.476;7.210;2022-08-19T12:23:30;27.90;11.70
11423;DHT22;5768;51.476;7.210;2022-08-19T12:28:34;27.40;11.80
11423;DHT22;5768;51.476;7.210;2022-08-19T12:33:38;28.90;11.40
11423;DHT22;5768;51.476;7.210;2022-08-19T12:38:42;28.40;11.00
11423;DHT22;5768;51.476;7.210;2022-08-19T12:43:46;28.20;11.10
11423;DHT22;5768;51.476;7.210;2022-08-19T12:48:50;28.20;11.00
11423;DHT22;5768;51.476;7.210;2022-08-19T12:53:56;30.40;10.60
11423;DHT22;5768;51.476;7.210;2022-08-19T12:59:01;30.90;10.00
11423;DHT22;5768;51.476;7.210;2022-08-19T13:04:08;32.20;9.70
11423;DHT22;5768;51.476;7.210;2022-08-19T13:09:12;32.20;9.70
11423;DHT22;5768;51.476;7.210;2022-08-19T13:14:15;33.20;9.30
11423;DHT22;5768;51.476;7.210;2022-08-19T13:19:19;34.80;9.00
11423;DHT22;5768;51.476;7.210;2022-08-19T13:24:25;35.60;8.90
11423;DHT22;5768;51.476;7.210;2022-08-19T13:29:28;33.20;9.00
11423;DHT22;5768;51.476;7.210;2022-08-19T13:34:48;33.20;9.20
11423;DHT22;5768;51.476;7.210;2022-08-19T13:39:52;35.60;8.70
11423;DHT22;5768;51.476;7.210;2022-08-19T13:44:55;32.00;9.20
11423;DHT22;5768;51.476;7.210;2022-08-19T13:50:02;33.20;9.00
11423;DHT22;5768;51.476;7.210;2022-08-19T13:55:08;31.20;9.30
11423;DHT22;5768;51.476;7.210;2022-08-19T14:00:15;32.70;9.00
11423;DHT22;5768;51.476;7.210;2022-08-19T14:05:22;34.80;8.50
11423;DHT22;5768;51.476;7.210;2022-08-19T14:10:30;37.60;8.00
11423;DHT22;5768;51.476;7.210;2022-08-19T14:15:34;38.70;7.70
11423;DHT22;5768;51.476;7.210;2022-08-19T14:20:38;35.70;8.20
11423;DHT22;5768;51.476;7.210;2022-08-19T14:25:42;33.10;8.70
11423;DHT22;5768;51.476;7.210;2022-08-19T14:30:47;37.20;8.10
11423;DHT22;5768;51.476;7.210;2022-08-19T14:35:50;38.50;7.70
11423;DHT22;5768;51.476;7.210;2022-08-19T14:40:53;39.30;7.50
11423;DHT22;5768;51.476;7.210;2022-08-19T14:45:58;39.00;7.40
11423;DHT22;5768;51.476;7.210;2022-08-19T14:51:00;41.20;7.10
11423;DHT22;5768;51.476;7.210;2022-08-19T14:56:09;41.50;6.90
11423;DHT22;5768;51.476;7.210;2022-08-19T15:01:13;41.80;6.80
11423;DHT22;5768;51.476;7.210;2022-08-19T15:06:15;42.30;6.70
11423;DHT22;5768;51.476;7.210;2022-08-19T15:11:21;38.60;7.10
11423;DHT22;5768;51.476;7.210;2022-08-19T15:16:31;37.90;7.40
11423;DHT22;5768;51.476;7.210;2022-08-19T15:21:35;40.40;6.90
11423;DHT22;5768;51.476;7.210;2022-08-19T15:26:39;40.40;6.80
11423;DHT22;5768;51.476;7.210;2022-08-19T15:31:43;36.90;7.40
11423;DHT22;5768;51.476;7.210;2022-08-19T15:36:49;35.40;7.80
11423;DHT22;5768;51.476;7.210;2022-08-19T15:41:53;34.10;8.00
11423;DHT22;5768;51.476;7.210;2022-08-19T15:46:56;37.10;7.50
11423;DHT22;5768;51.476;7.210;2022-08-19T15:51:58;38.80;7.20
11423;DHT22;5768;51.476;7.210;2022-08-19T15:57:02;40.30;7.00
11423;DHT22;5768;51.476;7.210;2022-08-19T16:02:25;37.30;7.50
11423;DHT22;5768;51.476;7.210;2022-08-19T16:07:45;33.90;8.10
11423;DHT22;5768;51.476;7.210;2022-08-19T16:12:49;32.60;8.50
11423;DHT22;5768;51.476;7.210;2022-08-19T16:17:52;34.10;8.40
11423;DHT22;5768;51.476;7.210;2022-08-19T16:22:56;37.50;7.70
11423;DHT22;5768;51.476;7.210;2022-08-19T16:28:01;40.60;7.10
11423;DHT22;5768;51.476;7.210;2022-08-19T16:33:03;38.90;7.10
11423;DHT22;5768;51.476;7.210;2022-08-19T16:38:06;37.10;7.40
11423;DHT22;5768;51.476;7.210;2022-08-19T16:43:10;34.80;7.70
11423;DHT22;5768;51.476;7.210;2022-08-19T16:48:13;33.90;8.00
11423;DHT22;5768;51.476;7.210;2022-08-19T16:53:17;35.40;7.60
11423;DHT22;5768;51.476;7.210;2022-08-19T16:58:23;37.60;7.30
11423;DHT22;5768;51.476;7.210;2022-08-19T17:03:28;35.60;7.60
11423;DHT22;5768;51.476;7.210;2022-08-19T17:08:31;33.60;8.00
11423;DHT22;5768;51.476;7.210;2022-08-19T17:13:35;32.10;8.30
11423;DHT22;5768;51.476;7.210;2022-08-19T17:18:45;31.30;8.60
11423;DHT22;5768;51.476;7.210;2022-08-19T17:23:52;30.50;8.70
11423;DHT22;5768;51.476;7.210;2022-08-19T17:28:58;30.10;9.00
11423;DHT22;5768;51.476;7.210;2022-08-19T17:34:01;29.20;9.40
11423;DHT22;5768;51.476;7.210;2022-08-19T17:39:04;29.10;9.50
11423;DHT22;5768;51.476;7.210;2022-08-19T17:44:13;29.00;9.70
11423;DHT22;5768;51.476;7.210;2022-08-19T17:49:16;28.60;9.70
11423;DHT22;5768;51.476;7.210;2022-08-19T17:54:19;28.30;9.90
11423;DHT22;5768;51.476;7.210;2022-08-19T17:59:23;28.30;10.00
11423;DHT22;5768;51.476;7.210;2022-08-19T18:04:26;28.50;10.00
11423;DHT22;5768;51.476;7.210;2022-08-19T18:09:38;28.10;10.10
11423;DHT22;5768;51.476;7.210;2022-08-19T18:14:43;27.90;10.20
11423;DHT22;5768;51.476;7.210;2022-08-19T18:19:46;27.70;10.30
11423;DHT22;5768;51.476;7.210;2022-08-19T18:24:48;27.40;10.50
11423;DHT22;5768;51.476;7.210;2022-08-19T18:29:52;26.80;10.70
11423;DHT22;5768;51.476;7.210;2022-08-19T18:34:59;26.30;10.90
11423;DHT22;5768;51.476;7.210;2022-08-19T18:40:02;26.00;11.10
11423;DHT22;5768;51.476;7.210;2022-08-19T18:45:24;25.70;11.20
11423;DHT22;5768;51.476;7.210;2022-08-19T18:50:56;25.30;11.30
11423;DHT22;5768;51.476;7.210;2022-08-19T18:56:00;25.20;11.40
11423;DHT22;5768;51.476;7.210;2022-08-19T19:01:08;25.00;11.70
11423;DHT22;5768;51.476;7.210;2022-08-19T19:06:13;24.80;12.00
11423;DHT22;5768;51.476;7.210;2022-08-19T19:11:22;24.70;12.40
11423;DHT22;5768;51.476;7.210;2022-08-19T19:16:26;24.60;12.70
11423;DHT22;5768;51.476;7.210;2022-08-19T19:21:29;24.40;13.10
11423;DHT22;5768;51.476;7.210;2022-08-19T19:26:31;24.30;13.40
11423;DHT22;5768;51.476;7.210;2022-08-19T19:31:34;24.20;13.50
11423;DHT22;5768;51.476;7.210;2022-08-19T19:36:37;24.20;13.60
11423;DHT22;5768;51.476;7.210;2022-08-19T19:41:40;24.00;13.90
11423;DHT22;5768;51.476;7.210;2022-08-19T19:46:43;24.10;14.00
11423;DHT22;5768;51.476;7.210;2022-08-19T19:51:46;23.90;14.30
11423;DHT22;5768;51.476;7.210;2022-08-19T19:56:48;23.70;14.60
11423;DHT22;5768;51.476;7.210;2022-08-19T20:01:52;23.50;15.00
11423;DHT22;5768;51.476;7.210;2022-08-19T20:06:54;23.50;15.10
11423;DHT22;5768;51.476;7.210;2022-08-19T20:11:56;23.30;15.30
11423;DHT22;5768;51.476;7.210;2022-08-19T20:17:01;23.30;15.40
11423;DHT22;5768;51.476;7.210;2022-08-19T20:22:04;23.30;15.40
11423;DHT22;5768;51.476;7.210;2022-08-19T20:27:07;23.30;15.40
11423;DHT22;5768;51.476;7.210;2022-08-19T20:32:11;23.20;15.50
11423;DHT22;5768;51.476;7.210;2022-08-19T20:37:13;23.20;15.40
11423;DHT22;5768;51.476;7.210;2022-08-19T20:42:15;23.20;15.40
11423;DHT22;5768;51.476;7.210;2022-08-19T20:47:19;23.20;15.40
11423;DHT22;5768;51.476;7.210;2022-08-19T20:52:21;23.20;15.40
11423;DHT22;5768;51.476;7.210;2022-08-19T20:57:23;23.20;15.40
11423;DHT22;5768;51.476;7.210;2022-08-19T21:02:27;23.10;15.60
11423;DHT22;5768;51.476;7.210;2022-08-19T21:07:29;23.00;15.80
11423;DHT22;5768;51.476;7.210;2022-08-19T21:12:31;22.90;15.80
11423;DHT22;5768;51.476;7.210;2022-08-19T21:17:35;22.80;15.90
11423;DHT22;5768;51.476;7.210;2022-08-19T21:22:37;22.80;16.00
11423;DHT22;5768;51.476;7.210;2022-08-19T21:27:39;22.90;15.90
11423;DHT22;5768;51.476;7.210;2022-08-19T21:32:46;23.00;15.80
11423;DHT22;5768;51.476;7.210;2022-08-19T21:37:48;23.00;15.90
11423;DHT22;5768;51.476;7.210;2022-08-19T21:42:51;23.30;15.50
11423;DHT22;5768;51.476;7.210;2022-08-19T21:47:55;23.50;15.30
11423;DHT22;5768;51.476;7.210;2022-08-19T21:52:57;23.50;15.30
11423;DHT22;5768;51.476;7.210;2022-08-19T21:58:00;23.40;15.20
11423;DHT22;5768;51.476;7.210;2022-08-19T22:03:04;23.50;15.20
11423;DHT22;5768;51.476;7.210;2022-08-19T22:08:06;23.50;15.20
11423;DHT22;5768;51.476;7.210;2022-08-19T22:13:09;23.30;15.40
11423;DHT22;5768;51.476;7.210;2022-08-19T22:18:13;23.20;15.50
11423;DHT22;5768;51.476;7.210;2022-08-19T22:23:18;23.20;15.60
11423;DHT22;5768;51.476;7.210;2022-08-19T22:28:21;23.00;15.80
11423;DHT22;5768;51.476;7.210;2022-08-19T22:33:25;23.10;15.80
11423;DHT22;5768;51.476;7.210;2022-08-19T22:38:29;23.10;15.90
11423;DHT22;5768;51.476;7.210;2022-08-19T22:43:32;22.80;16.40
11423;DHT22;5768;51.476;7.210;2022-08-19T22:48:35;22.80;16.70
11423;DHT22;5768;51.476;7.210;2022-08-19T22:53:40;22.70;17.40
11423;DHT22;5768;51.476;7.210;2022-08-19T22:58:45;22.60;17.90
11423;DHT22;5768;51.476;7.210;2022-08-19T23:03:51;22.60;18.40
11423;DHT22;5768;51.476;7.210;2022-08-19T23:08:55;22.60;18.60
11423;DHT22;5768;51.476;7.210;2022-08-19T23:13:57;22.10;20.40
11423;DHT22;5768;51.476;7.210;2022-08-19T23:19:01;22.10;21.50
11423;DHT22;5768;51.476;7.210;2022-08-19T23:24:04;22.10;22.10
11423;DHT22;5768;51.476;7.210;2022-08-19T23:29:07;22.00;23.70
11423;DHT22;5768;51.476;7.210;2022-08-19T23:34:28;22.00;24.80
11423;DHT22;5768;51.476;7.210;2022-08-19T23:39:30;22.00;26.10
11423;DHT22;5768;51.476;7.210;2022-08-19T23:44:32;22.20;25.20
11423;DHT22;5768;51.476;7.210;2022-08-19T23:49:36;22.40;26.80
11423;DHT22;5768;51.476;7.210;2022-08-19T23:54:38;22.40;26.80
11423;DHT22;5768;51.476;7.210;2022-08-19T23:59:41;22.40;26.60
